Time;durP1;ratioP1;P1;durP2;ratioP2;P2;SDS_P1;SDS_P2;PMS_P1;PMS_P2;Temp;Humidity;BMP_temperature;BMP_pressure;BME280_temperature;BME280_humidity;BME280_pressure;Samples;Min_cycle;Max_cycle;Signal;HPM_P1;HPM_P2
2022/07/07 00:01:10;;;;;;;;;;;;;;;;;;5076483;28;20364;-66
2022/07/07 00:03:36;;;;;;;;;;;;;;;;;;5076423;28;19908;-66
2022/07/07 00:06:02;;;;;;;;;;;;;;;;;;5076962;28;19909;-66
2022/07/07 00:08:28;;;;;;;;;;;;;;;;;;5076630;28;19954;-66
2022/07/07 00:10:54;;;;;;;;;;;;;;;;;;5075319;28;19912;-66
2022/07/07 00:13:19;;;;;;;;;;;;;;;;;;5076756;28;20000;-66
2022/07/07 00:15:45;;;;;;;;;;;;;;;;;;5076285;28;19995;-66
2022/07/07 00:18:11;;;;;;;;;;;;;;;;;;5058242;28;20003;-66
2022/07/07 00:20:37;;;;;;;;;;;;;;;;;;5076391;28;19912;-66
2022/07/07 00:23:03;;;;;;;;;;;;;;;;;;5076143;28;19908;-66
2022/07/07 00:25:29;;;;;;;;;;;;;;;;;;5076057;28;19909;-65
2022/07/07 00:27:55;;;;;;;;;;;;;;;;;;5076123;28;19986;-66
2022/07/07 00:30:21;;;;;;;;;;;;;;;;;;5076067;28;19916;-67
2022/07/07 00:32:47;;;;;;;;;;;;;;;;;;5076279;28;19958;-66
2022/07/07 00:35:13;;;;;;;;;;;;;;;;;;5075894;28;20363;-66
2022/07/07 00:37:39;;;;;;;;;;;;;;;;;;5076178;28;19955;-66
2022/07/07 00:40:06;;;;;;;;;;;;;;;;;;5074968;28;19972;-66
2022/07/07 00:42:32;;;;;;;;;;;;;;;;;;5075761;28;19913;-66
2022/07/07 00:44:58;;;;;;;;;;;;;;;;;;5075995;28;19909;-66
2022/07/07 00:47:24;;;;;;;;;;;;;;;;;;5075656;28;20330;-66
2022/07/07 00:49:49;;;;;;;;;;;;;;;;;;5075653;28;19954;-66
2022/07/07 00:52:15;;;;;;;;;;;;;;;;;;5075853;28;19971;-66
2022/07/07 00:54:41;;;;;;;;;;;;;;;;;;5075780;28;19908;-66
2022/07/07 00:57:08;;;;;;;;;;;;;;;;;;5076043;28;19916;-66
2022/07/07 00:59:34;;;;;;;;;;;;;;;;;;5075360;28;19913;-66
2022/07/07 01:02:00;;;;;;;;;;;;;;;;;;5075661;28;19909;-66
2022/07/07 01:04:26;;;;;;;;;;;;;;;;;;5075279;28;20050;-66
2022/07/07 01:06:52;;;;;;;;;;;;;;;;;;5075260;28;20348;-66
2022/07/07 01:09:18;;;;;;;;;;;;;;;;;;5075231;28;19908;-66
2022/07/07 01:11:44;;;;;;;;;;;;;;;;;;5075783;28;20387;-66
2022/07/07 01:14:10;;;;;;;;;;;;;;;;;;5075389;28;19944;-66
2022/07/07 01:16:36;;;;;;;;;;;;;;;;;;5075057;28;20466;-66
2022/07/07 01:19:02;;;;;;;;;;;;;;;;;;5074982;28;19913;-66
2022/07/07 01:21:27;;;;;;;;;;;;;;;;;;5075269;28;20284;-66
2022/07/07 01:23:53;;;;;;;;;;;;;;;;;;5074653;28;19908;-66
2022/07/07 01:26:19;;;;;;;;;;;;;;;;;;5075117;28;19955;-66
2022/07/07 01:28:45;;;;;;;;;;;;;;;;;;5074804;28;19918;-66
2022/07/07 01:31:11;;;;;;;;;;;;;;;;;;5074381;28;19916;-66
2022/07/07 01:33:37;;;;;;;;;;;;;;;;;;5075302;28;19909;-66
2022/07/07 01:36:03;;;;;;;;;;;;;;;;;;5074627;28;20349;-66
2022/07/07 01:38:29;;;;;;;;;;;;;;;;;;5075122;28;19908;-66
2022/07/07 01:40:55;;;;;;;;;;;;;;;;;;5075142;28;20280;-66
2022/07/07 01:43:21;;;;;;;;;;;;;;;;;;5074496;28;19909;-66
2022/07/07 01:45:46;;;;;;;;;;;;;;;;;;5074495;28;19915;-66
2022/07/07 01:48:12;;;;;;;;;;;;;;;;;;5074734;28;19909;-66
2022/07/07 01:50:38;;;;;;;;;;;;;;;;;;5074415;28;19912;-66
2022/07/07 01:53:04;;;;;;;;;;;;;;;;;;5074376;28;20341;-66
2022/07/07 01:55:30;;;;;;;;;;;;;;;;;;5074857;28;19951;-66
2022/07/07 01:57:56;;;;;;;;;;;;;;;;;;5074562;28;19915;-66
2022/07/07 02:00:22;;;;;;;;;;;;;;;;;;5074185;28;20314;-66
2022/07/07 02:02:48;;;;;;;;;;;;;;;;;;5074191;28;19915;-66
2022/07/07 02:05:14;;;;;;;;;;;;;;;;;;5056223;28;20368;-66
2022/07/07 02:07:40;;;;;;;;;;;;;;;;;;5074150;28;19916;-66
2022/07/07 02:10:06;;;;;;;;;;;;;;;;;;5074383;28;19908;-66
2022/07/07 02:12:31;;;;;;;;;;;;;;;;;;5074056;28;19931;-66
2022/07/07 02:14:58;;;;;;;;;;;;;;;;;;5074049;28;19923;-66
2022/07/07 02:17:24;;;;;;;;;;;;;;;;;;5074008;28;19909;-66
2022/07/07 02:19:51;;;;;;;;;;;;;;;;;;5074155;28;19919;-67
2022/07/07 02:22:16;;;;;;;;;;;;;;;;;;5073898;28;19908;-66
2022/07/07 02:24:42;;;;;;;;;;;;;;;;;;5073957;28;19915;-66
2022/07/07 02:27:08;;;;;;;;;;;;;;;;;;5073795;28;19908;-66
2022/07/07 02:29:34;;;;;;;;;;;;;;;;;;5055678;28;19912;-66
2022/07/07 02:32:00;;;;;;;;;;;;;;;;;;5074176;28;19954;-66
2022/07/07 02:34:28;;;;;;;;;;;;;;;;;;5073458;28;20495;-66
2022/07/07 02:36:54;;;;;;;;;;;;;;;;;;5055773;28;19916;-66
2022/07/07 02:39:20;;;;;;;;;;;;;;;;;;5074190;28;19916;-66
2022/07/07 02:41:46;;;;;;;;;;;;;;;;;;5074003;28;19908;-66
2022/07/07 02:44:12;;;;;;;;;;;;;;;;;;5073936;28;19908;-66
2022/07/07 02:46:38;;;;;;;;;;;;;;;;;;5055661;28;19909;-66
2022/07/07 02:49:03;;;;;;;;;;;;;;;;;;5073640;28;20446;-66
2022/07/07 02:51:29;;;;;;;;;;;;;;;;;;5074157;28;20349;-66
2022/07/07 02:53:55;;;;;;;;;;;;;;;;;;5073575;28;19913;-66
2022/07/07 02:56:21;;;;;;;;;;;;;;;;;;5073837;28;19908;-66
2022/07/07 02:58:47;;;;;;;;;;;;;;;;;;5073729;28;19956;-66
2022/07/07 03:01:13;;;;;;;;;;;;;;;;;;5073500;28;19909;-66
2022/07/07 03:03:39;;;;;;;;;;;;;;;;;;5074017;28;20268;-66
2022/07/07 03:06:05;;;;;;;;;;;;;;;;;;5073713;28;19913;-66
2022/07/07 03:08:31;;;;;;;;;;;;;;;;;;5074010;28;19909;-66
2022/07/07 03:10:57;;;;;;;;;;;;;;;;;;5073414;28;19982;-66
2022/07/07 03:13:23;;;;;;;;;;;;;;;;;;5073972;28;19913;-66
2022/07/07 03:15:48;;;;;;;;;;;;;;;;;;5073664;28;19916;-66
2022/07/07 03:18:14;;;;;;;;;;;;;;;;;;5073401;28;20125;-66
2022/07/07 03:20:40;;;;;;;;;;;;;;;;;;5073258;28;19974;-67
2022/07/07 03:23:06;;;;;;;;;;;;;;;;;;5073829;28;19915;-66
2022/07/07 03:25:32;;;;;;;;;;;;;;;;;;5073244;28;19999;-66
2022/07/07 03:27:58;;;;;;;;;;;;;;;;;;5073109;28;19918;-66
2022/07/07 03:30:24;;;;;;;;;;;;;;;;;;5073284;28;20363;-66
2022/07/07 03:32:50;;;;;;;;;;;;;;;;;;5073467;28;20254;-66
2022/07/07 03:35:16;;;;;;;;;;;;;;;;;;5073466;28;20011;-66
2022/07/07 03:37:42;;;;;;;;;;;;;;;;;;5073160;28;19909;-66
2022/07/07 03:40:08;;;;;;;;;;;;;;;;;;5074120;28;20352;-66
2022/07/07 03:42:33;;;;;;;;;;;;;;;;;;5073104;28;19914;-66
2022/07/07 03:44:59;;;;;;;;;;;;;;;;;;5073375;28;19909;-66
2022/07/07 03:47:25;;;;;;;;;;;;;;;;;;5076740;28;19912;-66
2022/07/07 03:49:51;;;;;;;;;;;;;;;;;;5077009;28;19908;-66
2022/07/07 03:52:17;;;;;;;;;;;;;;;;;;5076684;28;20303;-66
2022/07/07 03:54:43;;;;;;;;;;;;;;;;;;5076637;28;19915;-66
2022/07/07 03:57:09;;;;;;;;;;;;;;;;;;5076550;28;19908;-66
2022/07/07 03:59:35;;;;;;;;;;;;;;;;;;5076741;28;19916;-66
2022/07/07 04:02:01;;;;;;;;;;;;;;;;;;5076801;28;19934;-66
2022/07/07 04:04:27;;;;;;;;;;;;;;;;;;5076555;28;19940;-66
2022/07/07 04:06:53;;;;;;;;;;;;;;;;;;5077022;28;20268;-66
2022/07/07 04:09:18;;;;;;;;;;;;;;;;;;5076417;28;20003;-66
2022/07/07 04:11:44;;;;;;;;;;;;;;;;;;5076640;28;19908;-66
2022/07/07 04:14:10;;;;;;;;;;;;;;;;;;5076583;28;19912;-66
2022/07/07 04:16:36;;;;;;;;;;;;;;;;;;5076221;28;19916;-66
2022/07/07 04:19:02;;;;;;;;;;;;;;;;;;5076144;28;20265;-66
2022/07/07 04:21:28;;;;;;;;;;;;;;;;;;5076678;28;20276;-66
2022/07/07 04:23:54;;;;;;;;;;;;;;;;;;5076063;28;19912;-66
2022/07/07 04:26:20;;;;;;;;;;;;;;;;;;5076069;28;19934;-67
2022/07/07 04:28:46;;;;;;;;;;;;;;;;;;5076275;28;19962;-66
2022/07/07 04:31:12;;;;;;;;;;;;;;;;;;5075591;28;19971;-66
2022/07/07 04:33:38;;;;;;;;;;;;;;;;;;5076503;28;20352;-66
2022/07/07 04:36:04;;;;;;;;;;;;;;;;;;5076205;28;19908;-66
2022/07/07 04:38:30;;;;;;;;;;;;;;;;;;5076409;28;19908;-66
2022/07/07 04:40:56;;;;;;;;;;;;;;;;;;5075732;28;19917;-66
2022/07/07 04:43:22;;;;;;;;;;;;;;;;;;5076378;28;20343;-66
2022/07/07 04:45:48;;;;;;;;;;;;;;;;;;5076030;28;19908;-66
2022/07/07 04:48:15;;;;;;;;;;;;;;;;;;5075708;28;19958;-66
2022/07/07 04:50:41;;;;;;;;;;;;;;;;;;5075608;28;19931;-66
2022/07/07 04:53:06;;;;;;;;;;;;;;;;;;5075574;28;20368;-66
2022/07/07 04:55:32;;;;;;;;;;;;;;;;;;5075524;28;19923;-66
2022/07/07 04:57:58;;;;;;;;;;;;;;;;;;5074850;28;20352;-66
2022/07/07 05:00:24;;;;;;;;;;;;;;;;;;5075371;28;19913;-66
2022/07/07 05:02:50;;;;;;;;;;;;;;;;;;5075687;28;19909;-66
2022/07/07 05:05:16;;;;;;;;;;;;;;;;;;5075619;28;19916;-66
2022/07/07 05:07:42;;;;;;;;;;;;;;;;;;5075309;28;19909;-66
2022/07/07 05:10:08;;;;;;;;;;;;;;;;;;5075250;28;20392;-66
2022/07/07 05:12:34;;;;;;;;;;;;;;;;;;5075474;28;19913;-66
2022/07/07 05:15:00;;;;;;;;;;;;;;;;;;5075105;28;19908;-66
2022/07/07 05:17:25;;;;;;;;;;;;;;;;;;5057116;28;19916;-66
2022/07/07 05:19:51;;;;;;;;;;;;;;;;;;5075552;28;19920;-66
2022/07/07 05:22:17;;;;;;;;;;;;;;;;;;5075289;28;19909;-66
2022/07/07 05:24:43;;;;;;;;;;;;;;;;;;5074932;28;20363;-67
2022/07/07 05:27:09;;;;;;;;;;;;;;;;;;5074830;28;19912;-66
2022/07/07 05:29:35;;;;;;;;;;;;;;;;;;5053388;28;19913;-66
2022/07/07 05:32:01;;;;;;;;;;;;;;;;;;5055164;28;19913;-66
2022/07/07 05:34:27;;;;;;;;;;;;;;;;;;5054773;28;19932;-66
2022/07/07 05:36:53;;;;;;;;;;;;;;;;;;5054699;28;19909;-66
2022/07/07 05:39:18;;;;;;;;;;;;;;;;;;5055416;28;20023;-66
2022/07/07 05:41:44;;;;;;;;;;;;;;;;;;5054641;28;20391;-66
2022/07/07 05:44:10;;;;;;;;;;;;;;;;;;5054638;28;19909;-66
2022/07/07 05:46:36;;;;;;;;;;;;;;;;;;5054568;28;20270;-66
2022/07/07 05:49:02;;;;;;;;;;;;;;;;;;5054545;28;19909;-66
2022/07/07 05:51:28;;;;;;;;;;;;;;;;;;5054736;28;19935;-66
2022/07/07 05:53:54;;;;;;;;;;;;;;;;;;5054471;28;19909;-66
2022/07/07 05:56:20;;;;;;;;;;;;;;;;;;5054434;28;20430;-66
2022/07/07 05:58:46;;;;;;;;;;;;;;;;;;5054261;28;19931;-66
2022/07/07 06:01:12;;;;;;;;;;;;;;;;;;5054308;28;19913;-66
2022/07/07 06:03:38;;;;;;;;;;;;;;;;;;5054555;28;20006;-66
2022/07/07 06:06:04;;;;;;;;;;;;;;;;;;5054491;28;19909;-66
2022/07/07 06:08:29;;;;;;;;;;;;;;;;;;5054326;28;19916;-66
2022/07/07 06:10:55;;;;;;;;;;;;;;;;;;5053624;28;20312;-66
2022/07/07 06:13:21;;;;;;;;;;;;;;;;;;5054376;28;19996;-66
2022/07/07 06:15:47;;;;;;;;;;;;;;;;;;5054054;28;20055;-66
2022/07/07 06:18:13;;;;;;;;;;;;;;;;;;5053990;28;19909;-66
2022/07/07 06:20:39;;;;;;;;;;;;;;;;;;5054421;28;19960;-66
2022/07/07 06:23:05;;;;;;;;;;;;;;;;;;5054220;28;20000;-66
2022/07/07 06:25:31;;;;;;;;;;;;;;;;;;5053875;28;20029;-65
2022/07/07 06:27:57;;;;;;;;;;;;;;;;;;5054343;28;20421;-66
2022/07/07 06:30:25;;;;;;;;;;;;;;;;;;5052863;28;20449;-66
2022/07/07 06:32:51;;;;;;;;;;;;;;;;;;5054056;28;20424;-66
2022/07/07 06:35:19;;;;;;;;;;;;;;;;;;5054025;28;19952;-66
2022/07/07 06:37:45;;;;;;;;;;;;;;;;;;5053718;28;19913;-66
2022/07/07 06:40:11;;;;;;;;;;;;;;;;;;5054166;28;20011;-66
2022/07/07 06:42:37;;;;;;;;;;;;;;;;;;5053942;28;19909;-66
2022/07/07 06:45:03;;;;;;;;;;;;;;;;;;5053637;28;19909;-66
2022/07/07 06:47:29;;;;;;;;;;;;;;;;;;5053582;28;19959;-66
2022/07/07 06:49:55;;;;;;;;;;;;;;;;;;5053898;28;20047;-66
2022/07/07 06:52:21;;;;;;;;;;;;;;;;;;5053599;28;19909;-65
2022/07/07 06:54:47;;;;;;;;;;;;;;;;;;5053552;28;20392;-66
2022/07/07 06:57:15;;;;;;;;;;;;;;;;;;5053789;28;19909;-66
2022/07/07 06:59:40;;;;;;;;;;;;;;;;;;5053451;28;19978;-66
2022/07/07 07:02:06;;;;;;;;;;;;;;;;;;5053451;28;19963;-66
2022/07/07 07:04:32;;;;;;;;;;;;;;;;;;5053712;28;19944;-66
2022/07/07 07:06:58;;;;;;;;;;;;;;;;;;5053074;28;19913;-68
2022/07/07 07:09:24;;;;;;;;;;;;;;;;;;5052835;28;19912;-73
2022/07/07 07:11:50;;;;;;;;;;;;;;;;;;5053618;28;19909;-72
2022/07/07 07:14:16;;;;;;;;;;;;;;;;;;5053602;28;19908;-73
2022/07/07 07:16:42;;;;;;;;;;;;;;;;;;5053256;28;19912;-73
2022/07/07 07:19:08;;;;;;;;;;;;;;;;;;5053077;28;19958;-74
2022/07/07 07:21:34;;;;;;;;;;;;;;;;;;5055774;28;19912;-72
2022/07/07 07:23:59;;;;;;;;;;;;;;;;;;5056703;28;19921;-68
2022/07/07 07:26:25;;;;;;;;;;;;;;;;;;5055669;28;19917;-74
2022/07/07 07:28:52;;;;;;;;;;;;;;;;;;5055057;28;20369;-75
2022/07/07 07:31:18;;;;;;;;;;;;;;;;;;5054955;28;19921;-71
2022/07/07 07:33:44;;;;;;;;;;;;;;;;;;5056513;28;19913;-69
2022/07/07 07:36:10;;;;;;;;;;;;;;;;;;5057040;28;19909;-71
2022/07/07 07:38:37;;;;;;;;;;;;;;;;;;5056543;28;19948;-71
2022/07/07 07:41:03;;;;;;;;;;;;;;;;;;5038746;28;20407;-72
2022/07/07 07:43:29;;;;;;;;;;;;;;;;;;5056004;28;19913;-72
2022/07/07 07:45:55;;;;;;;;;;;;;;;;;;5056910;28;19920;-72
2022/07/07 07:48:21;;;;;;;;;;;;;;;;;;5056816;28;19962;-72
2022/07/07 07:50:47;;;;;;;;;;;;;;;;;;5055409;28;19913;-72
2022/07/07 07:53:13;;;;;;;;;;;;;;;;;;5055391;28;19908;-72
2022/07/07 07:55:39;;;;;;;;;;;;;;;;;;5056881;28;19916;-67
2022/07/07 07:58:04;;;;;;;;;;;;;;;;;;5056426;28;20272;-70
2022/07/07 08:00:30;;;;;;;;;;;;;;;;;;5056183;28;19917;-72
2022/07/07 08:02:56;;;;;;;;;;;;;;;;;;5056453;28;19916;-71
2022/07/07 08:05:22;;;;;;;;;;;;;;;;;;5056841;28;20312;-71
2022/07/07 08:07:48;;;;;;;;;;;;;;;;;;5056417;28;19944;-69
2022/07/07 08:10:14;;;;;;;;;;;;;;;;;;5055902;28;19913;-70
2022/07/07 08:12:40;;;;;;;;;;;;;;;;;;5056627;28;19963;-70
2022/07/07 08:15:06;;;;;;;;;;;;;;;;;;5056642;28;20357;-69
2022/07/07 08:17:32;;;;;;;;;;;;;;;;;;5056248;28;20292;-70
2022/07/07 08:19:58;;;;;;;;;;;;;;;;;;5056200;28;19912;-68
2022/07/07 08:22:23;;;;;;;;;;;;;;;;;;5056769;28;19909;-69
2022/07/07 08:24:49;;;;;;;;;;;;;;;;;;5055690;28;19913;-70
2022/07/07 08:27:15;;;;;;;;;;;;;;;;;;5056015;28;20288;-75
2022/07/07 08:29:41;;;;;;;;;;;;;;;;;;5055472;28;20318;-66
2022/07/07 08:32:07;;;;;;;;;;;;;;;;;;5054225;28;20391;-71
2022/07/07 08:34:33;;;;;;;;;;;;;;;;;;5056494;28;20280;-72
2022/07/07 08:36:59;;;;;;;;;;;;;;;;;;5055409;28;20300;-72
2022/07/07 08:39:25;;;;;;;;;;;;;;;;;;5056269;28;19927;-70
2022/07/07 08:41:51;;;;;;;;;;;;;;;;;;5054823;28;19908;-66
2022/07/07 08:44:17;;;;;;;;;;;;;;;;;;5055640;28;19948;-66
2022/07/07 08:46:43;;;;;;;;;;;;;;;;;;5056225;28;20363;-65
2022/07/07 08:49:09;;;;;;;;;;;;;;;;;;5055148;28;19913;-72
2022/07/07 08:51:35;;;;;;;;;;;;;;;;;;5055144;28;19912;-51
2022/07/07 08:54:01;;;;;;;;;;;;;;;;;;5054590;28;20365;-54
2022/07/07 08:56:27;;;;;;;;;;;;;;;;;;5054849;28;19912;-52
2022/07/07 08:58:53;;;;;;;;;;;;;;;;;;5055003;28;19908;-61
2022/07/07 09:01:19;;;;;;;;;;;;;;;;;;5054298;28;19913;-53
2022/07/07 09:03:45;;;;;;;;;;;;;;;;;;5055166;28;19909;-54
2022/07/07 09:06:11;;;;;;;;;;;;;;;;;;5054993;28;20328;-53
2022/07/07 09:08:37;;;;;;;;;;;;;;;;;;5056133;28;19916;-52
2022/07/07 09:11:03;;;;;;;;;;;;;;;;;;5055318;28;19956;-53
2022/07/07 09:13:29;;;;;;;;;;;;;;;;;;5055123;28;20289;-50
2022/07/07 09:15:55;;;;;;;;;;;;;;;;;;5054935;28;19999;-53
2022/07/07 09:18:21;;;;;;;;;;;;;;;;;;5054353;28;19935;-53
2022/07/07 09:20:46;;;;;;;;;;;;;;;;;;5054755;28;19964;-52
2022/07/07 09:23:13;;;;;;;;;;;;;;;;;;5055013;28;19908;-57
2022/07/07 09:25:39;;;;;;;;;;;;;;;;;;5054307;28;19916;-63
2022/07/07 09:28:06;;;;;;;;;;;;;;;;;;5054420;28;19917;-63
2022/07/07 09:30:31;;;;;;;;;;;;;;;;;;5052896;28;19943;-62
2022/07/07 09:32:57;;;;;;;;;;;;;;;;;;5054853;28;20364;-66
2022/07/07 09:38:14;;;;;;;;;;;;;;;;;;5054805;28;19915;-63
2022/07/07 09:40:40;;;;;;;;;;;;;;;;;;5054755;28;19917;-63
2022/07/07 09:43:06;;;;;;;;;;;;;;;;;;5054434;28;19999;-64
2022/07/07 09:45:32;;;;;;;;;;;;;;;;;;5053484;28;19960;-63
2022/07/07 09:47:58;;;;;;;;;;;;;;;;;;5053058;28;19963;-63
2022/07/07 09:50:24;;;;;;;;;;;;;;;;;;5052341;28;20385;-63
2022/07/07 09:52:50;;;;;;;;;;;;;;;;;;5052624;28;20260;-49
2022/07/07 09:55:16;;;;;;;;;;;;;;;;;;5052682;28;20187;-60
2022/07/07 09:57:45;;;;;;;;;;;;;;;;;;5052617;28;19925;-51
2022/07/07 10:00:11;;;;;;;;;;;;;;;;;;5052767;28;20059;-53
2022/07/07 10:02:37;;;;;;;;;;;;;;;;;;5052929;28;19913;-65
2022/07/07 10:05:03;;;;;;;;;;;;;;;;;;5053001;28;19921;-62
2022/07/07 10:07:29;;;;;;;;;;;;;;;;;;5054284;28;20289;-63
2022/07/07 10:09:55;;;;;;;;;;;;;;;;;;5054163;28;19923;-63
2022/07/07 10:12:21;;;;;;;;;;;;;;;;;;5054429;28;19909;-58
2022/07/07 10:14:47;;;;;;;;;;;;;;;;;;5054125;28;19951;-56
2022/07/07 10:17:16;;;;;;;;;;;;;;;;;;5054313;28;19909;-64
2022/07/07 10:19:42;;;;;;;;;;;;;;;;;;5053980;28;20434;-60
2022/07/07 10:22:08;;;;;;;;;;;;;;;;;;5053976;28;19909;-61
2022/07/07 10:24:35;;;;;;;;;;;;;;;;;;5052423;28;19913;-63
2022/07/07 10:27:01;;;;;;;;;;;;;;;;;;5052536;28;20008;-59
2022/07/07 10:29:27;;;;;;;;;;;;;;;;;;5033771;28;20361;-62
2022/07/07 10:31:53;;;;;;;;;;;;;;;;;;5051585;28;19956;-60
2022/07/07 10:34:19;;;;;;;;;;;;;;;;;;5054071;28;19909;-66
2022/07/07 10:36:45;;;;;;;;;;;;;;;;;;5053397;28;20369;-66
2022/07/07 10:39:10;;;;;;;;;;;;;;;;;;5053658;28;20446;-66
2022/07/07 10:41:36;;;;;;;;;;;;;;;;;;5054217;28;19908;-67
2022/07/07 10:44:03;;;;;;;;;;;;;;;;;;5053792;28;19931;-66
2022/07/07 10:46:28;;;;;;;;;;;;;;;;;;5053824;28;19909;-66
2022/07/07 10:48:57;;;;;;;;;;;;;;;;;;5053680;28;20327;-66
2022/07/07 10:51:23;;;;;;;;;;;;;;;;;;5053549;28;19909;-66
2022/07/07 10:53:49;;;;;;;;;;;;;;;;;;5053875;28;19947;-67
2022/07/07 10:56:15;;;;;;;;;;;;;;;;;;5052971;28;19908;-67
2022/07/07 10:58:40;;;;;;;;;;;;;;;;;;5053808;28;19908;-66
2022/07/07 11:01:06;;;;;;;;;;;;;;;;;;5053445;28;19920;-67
2022/07/07 11:03:32;;;;;;;;;;;;;;;;;;5053913;28;19909;-67
2022/07/07 11:05:58;;;;;;;;;;;;;;;;;;5053487;28;19946;-66
2022/07/07 11:08:24;;;;;;;;;;;;;;;;;;5053985;28;20372;-66
2022/07/07 11:10:50;;;;;;;;;;;;;;;;;;5053646;28;19916;-66
2022/07/07 11:13:16;;;;;;;;;;;;;;;;;;5053349;28;19913;-66
2022/07/07 11:15:42;;;;;;;;;;;;;;;;;;5053950;28;19915;-66
2022/07/07 11:18:09;;;;;;;;;;;;;;;;;;5053345;28;19909;-67
2022/07/07 11:20:35;;;;;;;;;;;;;;;;;;5053793;28;20253;-66
2022/07/07 11:23:03;;;;;;;;;;;;;;;;;;5053319;28;19913;-66
2022/07/07 11:25:29;;;;;;;;;;;;;;;;;;5051787;28;19956;-66
2022/07/07 11:27:55;;;;;;;;;;;;;;;;;;5053214;28;19959;-66
2022/07/07 11:30:20;;;;;;;;;;;;;;;;;;5053036;28;19924;-67
2022/07/07 11:32:46;;;;;;;;;;;;;;;;;;5053084;28;19916;-67
2022/07/07 11:35:12;;;;;;;;;;;;;;;;;;5053205;28;19916;-67
2022/07/07 11:37:38;;;;;;;;;;;;;;;;;;5053756;28;20376;-66
2022/07/07 11:40:04;;;;;;;;;;;;;;;;;;5053841;28;19959;-67
2022/07/07 11:42:30;;;;;;;;;;;;;;;;;;5053144;28;19999;-67
2022/07/07 11:44:56;;;;;;;;;;;;;;;;;;5053329;28;19944;-67
2022/07/07 11:47:22;;;;;;;;;;;;;;;;;;5053078;28;19909;-67
2022/07/07 11:49:48;;;;;;;;;;;;;;;;;;5053336;28;19915;-67
2022/07/07 11:52:15;;;;;;;;;;;;;;;;;;5053024;28;20279;-67
2022/07/07 11:54:41;;;;;;;;;;;;;;;;;;5053014;28;19909;-67
2022/07/07 11:57:07;;;;;;;;;;;;;;;;;;5052960;28;19987;-66
2022/07/07 11:59:33;;;;;;;;;;;;;;;;;;5053467;28;19919;-67
2022/07/07 12:01:59;;;;;;;;;;;;;;;;;;5052926;28;19913;-66
2022/07/07 12:04:25;;;;;;;;;;;;;;;;;;5052920;28;19909;-67
2022/07/07 12:06:51;;;;;;;;;;;;;;;;;;5053174;28;19954;-67
2022/07/07 12:09:17;;;;;;;;;;;;;;;;;;5056275;28;19909;-67
2022/07/07 12:11:43;;;;;;;;;;;;;;;;;;5056459;28;20364;-68
2022/07/07 12:14:09;;;;;;;;;;;;;;;;;;5055976;28;19964;-67
2022/07/07 12:16:35;;;;;;;;;;;;;;;;;;5055416;28;19974;-62
2022/07/07 12:19:01;;;;;;;;;;;;;;;;;;5056414;28;19948;-64
2022/07/07 12:21:27;;;;;;;;;;;;;;;;;;5056003;28;19919;-63
2022/07/07 12:23:53;;;;;;;;;;;;;;;;;;5055978;28;19912;-60
2022/07/07 12:26:20;;;;;;;;;;;;;;;;;;5053968;28;19913;-61
2022/07/07 12:28:46;;;;;;;;;;;;;;;;;;5055667;28;20003;-58
2022/07/07 12:31:12;;;;;;;;;;;;;;;;;;5055183;28;19928;-59
2022/07/07 12:33:38;;;;;;;;;;;;;;;;;;5055873;28;19909;-60
2022/07/07 12:36:04;;;;;;;;;;;;;;;;;;5055768;28;19996;-60
2022/07/07 12:38:30;;;;;;;;;;;;;;;;;;5056137;28;19948;-54
2022/07/07 12:40:56;;;;;;;;;;;;;;;;;;5057148;28;20357;-56
2022/07/07 12:43:21;;;;;;;;;;;;;;;;;;5055802;28;19958;-55
2022/07/07 12:45:47;;;;;;;;;;;;;;;;;;5055609;28;20285;-51
2022/07/07 12:48:13;;;;;;;;;;;;;;;;;;5055309;28;19916;-56
2022/07/07 12:50:39;;;;;;;;;;;;;;;;;;5055982;28;19909;-64
2022/07/07 12:53:07;;;;;;;;;;;;;;;;;;5055317;28;20411;-55
2022/07/07 12:55:33;;;;;;;;;;;;;;;;;;5054058;28;19917;-59
2022/07/07 12:57:59;;;;;;;;;;;;;;;;;;5054564;28;19913;-65
2022/07/07 13:00:25;;;;;;;;;;;;;;;;;;5054599;28;19916;-59
2022/07/07 13:02:51;;;;;;;;;;;;;;;;;;5054930;28;19921;-60
2022/07/07 13:05:17;;;;;;;;;;;;;;;;;;5055032;28;20357;-63
2022/07/07 13:07:42;;;;;;;;;;;;;;;;;;5055665;28;19940;-64
2022/07/07 13:10:09;;;;;;;;;;;;;;;;;;5055611;28;20254;-58
2022/07/07 13:12:35;;;;;;;;;;;;;;;;;;5054887;28;20388;-62
2022/07/07 13:15:00;;;;;;;;;;;;;;;;;;5054866;28;19913;-56
2022/07/07 13:17:27;;;;;;;;;;;;;;;;;;5054749;28;20003;-62
2022/07/07 13:19:53;;;;;;;;;;;;;;;;;;5054088;28;20407;-50
2022/07/07 13:22:19;;;;;;;;;;;;;;;;;;5055660;28;19909;-62
2022/07/07 13:24:44;;;;;;;;;;;;;;;;;;5055050;28;19909;-62
2022/07/07 13:27:10;;;;;;;;;;;;;;;;;;5054948;28;19958;-61
2022/07/07 13:29:36;;;;;;;;;;;;;;;;;;5055244;28;19971;-60
2022/07/07 13:32:02;;;;;;;;;;;;;;;;;;5054472;28;19913;-62
2022/07/07 13:34:28;;;;;;;;;;;;;;;;;;5054569;28;20391;-62
2022/07/07 13:36:54;;;;;;;;;;;;;;;;;;5054814;28;19909;-59
2022/07/07 13:39:20;;;;;;;;;;;;;;;;;;5054954;28;19966;-59
2022/07/07 13:41:46;;;;;;;;;;;;;;;;;;5055215;28;19917;-59
2022/07/07 13:44:12;;;;;;;;;;;;;;;;;;5053923;28;20360;-63
2022/07/07 13:46:38;;;;;;;;;;;;;;;;;;5054891;28;19913;-62
2022/07/07 13:49:04;;;;;;;;;;;;;;;;;;5054502;28;19951;-59
2022/07/07 13:51:30;;;;;;;;;;;;;;;;;;5053958;28;19920;-55
2022/07/07 13:53:55;;;;;;;;;;;;;;;;;;5054212;28;19917;-55
2022/07/07 13:56:21;;;;;;;;;;;;;;;;;;5054231;28;19995;-56
2022/07/07 13:58:47;;;;;;;;;;;;;;;;;;5053952;28;19913;-59
2022/07/07 14:01:13;;;;;;;;;;;;;;;;;;5053646;28;19923;-60
2022/07/07 14:03:39;;;;;;;;;;;;;;;;;;5053458;28;19913;-61
2022/07/07 14:06:05;;;;;;;;;;;;;;;;;;5054403;28;20430;-77
2022/07/07 14:08:31;;;;;;;;;;;;;;;;;;5054552;28;19952;-75
2022/07/07 14:10:57;;;;;;;;;;;;;;;;;;5053705;28;20027;-72
2022/07/07 14:13:23;;;;;;;;;;;;;;;;;;5053793;28;19909;-73
2022/07/07 14:15:49;;;;;;;;;;;;;;;;;;5052541;28;19917;-69
2022/07/07 14:18:14;;;;;;;;;;;;;;;;;;5053470;28;19913;-68
2022/07/07 14:20:40;;;;;;;;;;;;;;;;;;5053800;28;20418;-68
2022/07/07 14:23:06;;;;;;;;;;;;;;;;;;5054264;28;19912;-69
2022/07/07 14:25:32;;;;;;;;;;;;;;;;;;5053927;28;20289;-69
2022/07/07 14:27:58;;;;;;;;;;;;;;;;;;5053826;28;19909;-68
2022/07/07 14:30:24;;;;;;;;;;;;;;;;;;5051932;28;19928;-67
2022/07/07 14:32:50;;;;;;;;;;;;;;;;;;5053622;28;19952;-67
2022/07/07 14:35:16;;;;;;;;;;;;;;;;;;5053127;28;19924;-68
2022/07/07 14:37:42;;;;;;;;;;;;;;;;;;5052972;28;19913;-75
2022/07/07 14:40:07;;;;;;;;;;;;;;;;;;5036076;28;19912;-75
2022/07/07 14:42:33;;;;;;;;;;;;;;;;;;5053141;28;19996;-72
2022/07/07 14:44:59;;;;;;;;;;;;;;;;;;5051881;28;19915;-74
2022/07/07 14:47:25;;;;;;;;;;;;;;;;;;5053623;28;20388;-73
2022/07/07 14:49:53;;;;;;;;;;;;;;;;;;5053117;28;19913;-71
2022/07/07 14:52:19;;;;;;;;;;;;;;;;;;5053286;28;19909;-71
2022/07/07 14:54:45;;;;;;;;;;;;;;;;;;5050949;28;19913;-68
2022/07/07 14:57:11;;;;;;;;;;;;;;;;;;5052913;28;19913;-69
2022/07/07 14:59:37;;;;;;;;;;;;;;;;;;5051743;28;19916;-74
2022/07/07 15:02:02;;;;;;;;;;;;;;;;;;5053775;28;19909;-72
2022/07/07 15:04:28;;;;;;;;;;;;;;;;;;5053017;28;20328;-76
2022/07/07 15:06:54;;;;;;;;;;;;;;;;;;5051564;28;20296;-69
2022/07/07 15:09:20;;;;;;;;;;;;;;;;;;5053662;28;19994;-71
2022/07/07 15:11:46;;;;;;;;;;;;;;;;;;5053696;28;19913;-69
2022/07/07 15:14:12;;;;;;;;;;;;;;;;;;5053395;28;19909;-67
2022/07/07 15:16:38;;;;;;;;;;;;;;;;;;5053828;28;19909;-75
2022/07/07 15:19:04;;;;;;;;;;;;;;;;;;5053584;28;19916;-72
2022/07/07 15:21:30;;;;;;;;;;;;;;;;;;5052924;28;19913;-74
2022/07/07 15:23:56;;;;;;;;;;;;;;;;;;5052821;28;19917;-72
2022/07/07 15:26:22;;;;;;;;;;;;;;;;;;5051835;28;19909;-71
2022/07/07 15:28:48;;;;;;;;;;;;;;;;;;5052205;28;20018;-71
2022/07/07 15:31:13;;;;;;;;;;;;;;;;;;5051575;28;19928;-69
2022/07/07 15:33:39;;;;;;;;;;;;;;;;;;5052137;28;19966;-70
2022/07/07 15:36:05;;;;;;;;;;;;;;;;;;5052729;28;20021;-67
2022/07/07 15:38:31;;;;;;;;;;;;;;;;;;5052679;28;20354;-66
2022/07/07 15:40:57;;;;;;;;;;;;;;;;;;5052725;28;20384;-67
2022/07/07 15:43:23;;;;;;;;;;;;;;;;;;5056441;28;19954;-67
2022/07/07 15:45:49;;;;;;;;;;;;;;;;;;5057462;28;19915;-66
2022/07/07 15:48:15;;;;;;;;;;;;;;;;;;5056834;28;19909;-67
2022/07/07 15:50:41;;;;;;;;;;;;;;;;;;5056886;28;19909;-66
2022/07/07 15:53:06;;;;;;;;;;;;;;;;;;5057106;28;19909;-66
2022/07/07 15:55:32;;;;;;;;;;;;;;;;;;5057051;28;20313;-66
2022/07/07 15:57:58;;;;;;;;;;;;;;;;;;5057318;28;20003;-66
2022/07/07 16:00:24;;;;;;;;;;;;;;;;;;5056591;28;19913;-67
2022/07/07 16:02:50;;;;;;;;;;;;;;;;;;5056926;28;19916;-67
2022/07/07 16:05:17;;;;;;;;;;;;;;;;;;5056569;28;19913;-67
2022/07/07 16:07:43;;;;;;;;;;;;;;;;;;5055222;28;20280;-67
2022/07/07 16:10:09;;;;;;;;;;;;;;;;;;5056527;28;19908;-66
2022/07/07 16:12:35;;;;;;;;;;;;;;;;;;5057016;28;19915;-66
2022/07/07 16:15:01;;;;;;;;;;;;;;;;;;5056421;28;19909;-66
2022/07/07 16:17:26;;;;;;;;;;;;;;;;;;5054938;28;19913;-67
2022/07/07 16:19:52;;;;;;;;;;;;;;;;;;5056756;28;19913;-67
2022/07/07 16:22:18;;;;;;;;;;;;;;;;;;5056257;28;19909;-67
2022/07/07 16:24:45;;;;;;;;;;;;;;;;;;5056790;28;20349;-67
2022/07/07 16:27:11;;;;;;;;;;;;;;;;;;5056146;28;20399;-67
2022/07/07 16:29:37;;;;;;;;;;;;;;;;;;5056358;28;20008;-67
2022/07/07 16:32:03;;;;;;;;;;;;;;;;;;5056369;28;19934;-67
2022/07/07 16:34:29;;;;;;;;;;;;;;;;;;5056294;28;20319;-67
2022/07/07 16:36:55;;;;;;;;;;;;;;;;;;5056222;28;19915;-67
2022/07/07 16:39:23;;;;;;;;;;;;;;;;;;5055807;28;19917;-66